sensor_id;sensor_type;location;lat;lon;timestamp;P1;durP1;ratioP1;P2;durP2;ratioP2
8476;SDS011;4275;42.854;23.222;2022-08-11T00:00:51;16.48;;;15.77;;
8476;SDS011;4275;42.854;23.222;2022-08-11T00:03:18;16.70;;;16.00;;
8476;SDS011;4275;42.854;23.222;2022-08-11T00:05:47;16.65;;;15.95;;
8476;SDS011;4275;42.854;23.222;2022-08-11T00:08:19;16.25;;;15.60;;
8476;SDS011;4275;42.854;23.222;2022-08-11T00:10:50;16.00;;;15.40;;
8476;SDS011;4275;42.854;23.222;2022-08-11T00:13:17;15.55;;;14.95;;
8476;SDS011;4275;42.854;23.222;2022-08-11T00:15:44;15.30;;;14.70;;
8476;SDS011;4275;42.854;23.222;2022-08-11T00:18:11;13.95;;;13.45;;
8476;SDS011;4275;42.854;23.222;2022-08-11T00:20:40;13.85;;;13.35;;
8476;SDS011;4275;42.854;23.222;2022-08-11T00:23:09;14.10;;;13.60;;
8476;SDS011;4275;42.854;23.222;2022-08-11T00:25:37;13.85;;;13.35;;
8476;SDS011;4275;42.854;23.222;2022-08-11T00:28:13;14.45;;;13.95;;
8476;SDS011;4275;42.854;23.222;2022-08-11T00:30:48;14.20;;;13.70;;
8476;SDS011;4275;42.854;23.222;2022-08-11T00:33:16;14.20;;;13.70;;
8476;SDS011;4275;42.854;23.222;2022-08-11T00:35:44;15.05;;;14.45;;
8476;SDS011;4275;42.854;23.222;2022-08-11T00:38:12;13.77;;;13.27;;
8476;SDS011;4275;42.854;23.222;2022-08-11T00:40:41;14.00;;;13.50;;
8476;SDS011;4275;42.854;23.222;2022-08-11T00:43:14;14.18;;;13.68;;
8476;SDS011;4275;42.854;23.222;2022-08-11T00:45:45;13.77;;;13.27;;
8476;SDS011;4275;42.854;23.222;2022-08-11T00:48:19;14.30;;;13.80;;
8476;SDS011;4275;42.854;23.222;2022-08-11T00:50:56;14.05;;;13.55;;
8476;SDS011;4275;42.854;23.222;2022-08-11T00:53:35;14.20;;;13.70;;
8476;SDS011;4275;42.854;23.222;2022-08-11T00:56:22;14.13;;;13.63;;
8476;SDS011;4275;42.854;23.222;2022-08-11T00:59:06;14.25;;;13.75;;
8476;SDS011;4275;42.854;23.222;2022-08-11T01:01:44;14.15;;;13.65;;
8476;SDS011;4275;42.854;23.222;2022-08-11T01:04:27;13.80;;;13.30;;
8476;SDS011;4275;42.854;23.222;2022-08-11T01:09:57;23.23;;;18.92;;
8476;SDS011;4275;42.854;23.222;2022-08-11T01:12:31;12.90;;;12.50;;
8476;SDS011;4275;42.854;23.222;2022-08-11T01:20:47;11.40;;;11.00;;
8476;SDS011;4275;42.854;23.222;2022-08-11T01:26:25;11.23;;;10.93;;
8476;SDS011;4275;42.854;23.222;2022-08-11T01:43:00;9.52;;;9.23;;
8476;SDS011;4275;42.854;23.222;2022-08-11T01:45:48;9.35;;;9.05;;
8476;SDS011;4275;42.854;23.222;2022-08-11T01:48:18;9.70;;;9.40;;
8476;SDS011;4275;42.854;23.222;2022-08-11T01:50:52;9.73;;;9.43;;
8476;SDS011;4275;42.854;23.222;2022-08-11T01:53:27;9.40;;;9.10;;
8476;SDS011;4275;42.854;23.222;2022-08-11T01:56:00;9.73;;;9.43;;
8476;SDS011;4275;42.854;23.222;2022-08-11T01:58:37;9.60;;;9.30;;
8476;SDS011;4275;42.854;23.222;2022-08-11T02:01:10;9.82;;;9.52;;
8476;SDS011;4275;42.854;23.222;2022-08-11T02:03:45;9.75;;;9.45;;
8476;SDS011;4275;42.854;23.222;2022-08-11T02:06:14;9.60;;;9.30;;
8476;SDS011;4275;42.854;23.222;2022-08-11T02:09:03;9.60;;;9.30;;
8476;SDS011;4275;42.854;23.222;2022-08-11T02:11:34;9.90;;;9.60;;
8476;SDS011;4275;42.854;23.222;2022-08-11T02:14:09;10.00;;;9.70;;
8476;SDS011;4275;42.854;23.222;2022-08-11T02:19:32;10.30;;;10.00;;
8476;SDS011;4275;42.854;23.222;2022-08-11T02:22:19;9.95;;;9.65;;
8476;SDS011;4275;42.854;23.222;2022-08-11T02:25:06;9.70;;;9.40;;
8476;SDS011;4275;42.854;23.222;2022-08-11T02:27:35;9.73;;;9.43;;
8476;SDS011;4275;42.854;23.222;2022-08-11T02:30:07;9.68;;;9.38;;
8476;SDS011;4275;42.854;23.222;2022-08-11T02:32:36;9.93;;;9.63;;
8476;SDS011;4275;42.854;23.222;2022-08-11T02:35:22;9.82;;;9.52;;
8476;SDS011;4275;42.854;23.222;2022-08-11T02:37:54;10.13;;;9.82;;
8476;SDS011;4275;42.854;23.222;2022-08-11T02:40:27;9.70;;;9.40;;
8476;SDS011;4275;42.854;23.222;2022-08-11T02:43:00;9.88;;;9.57;;
8476;SDS011;4275;42.854;23.222;2022-08-11T02:45:36;10.02;;;9.73;;
8476;SDS011;4275;42.854;23.222;2022-08-11T02:48:07;9.80;;;9.50;;
8476;SDS011;4275;42.854;23.222;2022-08-11T02:51:01;9.43;;;9.13;;
8476;SDS011;4275;42.854;23.222;2022-08-11T02:53:34;9.68;;;9.38;;
8476;SDS011;4275;42.854;23.222;2022-08-11T02:56:05;9.30;;;9.00;;
8476;SDS011;4275;42.854;23.222;2022-08-11T02:58:35;9.10;;;8.80;;
8476;SDS011;4275;42.854;23.222;2022-08-11T03:01:15;9.20;;;8.90;;
8476;SDS011;4275;42.854;23.222;2022-08-11T03:03:46;9.60;;;9.30;;
8476;SDS011;4275;42.854;23.222;2022-08-11T03:06:23;9.70;;;9.40;;
8476;SDS011;4275;42.854;23.222;2022-08-11T03:08:53;10.15;;;9.85;;
8476;SDS011;4275;42.854;23.222;2022-08-11T03:11:29;9.80;;;9.50;;
8476;SDS011;4275;42.854;23.222;2022-08-11T03:14:15;9.77;;;9.48;;
8476;SDS011;4275;42.854;23.222;2022-08-11T03:17:05;10.07;;;9.77;;
8476;SDS011;4275;42.854;23.222;2022-08-11T03:19:42;9.75;;;9.45;;
8476;SDS011;4275;42.854;23.222;2022-08-11T03:22:16;10.00;;;9.70;;
8476;SDS011;4275;42.854;23.222;2022-08-11T03:24:52;10.02;;;9.73;;
8476;SDS011;4275;42.854;23.222;2022-08-11T03:27:26;10.10;;;9.80;;
8476;SDS011;4275;42.854;23.222;2022-08-11T03:30:00;10.20;;;9.90;;
8476;SDS011;4275;42.854;23.222;2022-08-11T03:32:31;10.30;;;10.00;;
8476;SDS011;4275;42.854;23.222;2022-08-11T03:35:00;10.55;;;10.25;;
8476;SDS011;4275;42.854;23.222;2022-08-11T03:37:30;10.55;;;10.25;;
8476;SDS011;4275;42.854;23.222;2022-08-11T03:40:19;10.98;;;10.68;;
8476;SDS011;4275;42.854;23.222;2022-08-11T03:43:06;11.60;;;11.20;;
8476;SDS011;4275;42.854;23.222;2022-08-11T03:45:47;11.70;;;11.30;;
8476;SDS011;4275;42.854;23.222;2022-08-11T03:48:24;11.77;;;11.38;;
8476;SDS011;4275;42.854;23.222;2022-08-11T03:50:55;11.90;;;11.50;;
8476;SDS011;4275;42.854;23.222;2022-08-11T03:53:34;11.82;;;11.43;;
8476;SDS011;4275;42.854;23.222;2022-08-11T03:56:25;11.32;;;10.93;;
8476;SDS011;4275;42.854;23.222;2022-08-11T03:59:03;12.00;;;11.60;;
8476;SDS011;4275;42.854;23.222;2022-08-11T04:01:39;12.18;;;11.77;;
8476;SDS011;4275;42.854;23.222;2022-08-11T04:18:39;15.18;;;14.57;;
8476;SDS011;4275;42.854;23.222;2022-08-11T04:21:20;15.35;;;14.75;;
8476;SDS011;4275;42.854;23.222;2022-08-11T04:23:55;15.48;;;14.88;;
8476;SDS011;4275;42.854;23.222;2022-08-11T04:29:28;16.33;;;15.63;;
8476;SDS011;4275;42.854;23.222;2022-08-11T04:32:06;16.48;;;15.77;;
8476;SDS011;4275;42.854;23.222;2022-08-11T04:34:39;16.45;;;15.85;;
8476;SDS011;4275;42.854;23.222;2022-08-11T04:37:09;17.58;;;16.88;;
8476;SDS011;4275;42.854;23.222;2022-08-11T04:40:03;17.80;;;17.10;;
8476;SDS011;4275;42.854;23.222;2022-08-11T04:45:44;17.27;;;16.58;;
8476;SDS011;4275;42.854;23.222;2022-08-11T04:48:31;16.55;;;15.85;;
8476;SDS011;4275;42.854;23.222;2022-08-11T04:51:31;16.13;;;15.52;;
8476;SDS011;4275;42.854;23.222;2022-08-11T04:54:22;16.65;;;15.95;;
8476;SDS011;4275;42.854;23.222;2022-08-11T04:57:12;16.05;;;15.35;;
8476;SDS011;4275;42.854;23.222;2022-08-11T05:00:02;16.48;;;15.88;;
8476;SDS011;4275;42.854;23.222;2022-08-11T05:05:34;16.92;;;16.23;;
8476;SDS011;4275;42.854;23.222;2022-08-11T05:10:50;17.73;;;16.92;;
8476;SDS011;4275;42.854;23.222;2022-08-11T05:13:24;17.63;;;16.83;;
8476;SDS011;4275;42.854;23.222;2022-08-11T05:16:10;16.75;;;16.05;;
8476;SDS011;4275;42.854;23.222;2022-08-11T05:18:54;15.73;;;15.13;;
8476;SDS011;4275;42.854;23.222;2022-08-11T05:21:40;15.05;;;14.52;;
8476;SDS011;4275;42.854;23.222;2022-08-11T05:24:25;16.52;;;15.93;;
8476;SDS011;4275;42.854;23.222;2022-08-11T05:27:14;16.35;;;15.75;;
8476;SDS011;4275;42.854;23.222;2022-08-11T05:30:00;16.75;;;16.15;;
8476;SDS011;4275;42.854;23.222;2022-08-11T05:32:45;15.98;;;15.38;;
8476;SDS011;4275;42.854;23.222;2022-08-11T05:35:31;15.38;;;14.77;;
8476;SDS011;4275;42.854;23.222;2022-08-11T05:38:01;15.05;;;14.55;;
8476;SDS011;4275;42.854;23.222;2022-08-11T05:40:48;14.48;;;13.98;;
8476;SDS011;4275;42.854;23.222;2022-08-11T05:43:38;14.55;;;14.05;;
8476;SDS011;4275;42.854;23.222;2022-08-11T05:46:23;14.88;;;14.38;;
8476;SDS011;4275;42.854;23.222;2022-08-11T05:49:09;15.00;;;14.50;;
8476;SDS011;4275;42.854;23.222;2022-08-11T05:51:53;14.98;;;14.48;;
8476;SDS011;4275;42.854;23.222;2022-08-11T05:54:38;14.35;;;13.85;;
8476;SDS011;4275;42.854;23.222;2022-08-11T05:57:24;18.65;;;17.92;;
8476;SDS011;4275;42.854;23.222;2022-08-11T05:59:58;13.98;;;13.57;;
8476;SDS011;4275;42.854;23.222;2022-08-11T06:02:26;18.42;;;17.63;;
8476;SDS011;4275;42.854;23.222;2022-08-11T06:04:54;13.60;;;13.20;;
8476;SDS011;4275;42.854;23.222;2022-08-11T06:07:25;13.80;;;13.40;;
8476;SDS011;4275;42.854;23.222;2022-08-11T06:09:53;13.95;;;13.48;;
8476;SDS011;4275;42.854;23.222;2022-08-11T06:12:22;16.23;;;15.63;;
8476;SDS011;4275;42.854;23.222;2022-08-11T06:14:52;15.35;;;14.85;;
8476;SDS011;4275;42.854;23.222;2022-08-11T06:17:22;16.10;;;15.50;;
8476;SDS011;4275;42.854;23.222;2022-08-11T06:19:50;16.10;;;15.50;;
8476;SDS011;4275;42.854;23.222;2022-08-11T06:22:21;16.00;;;15.40;;
8476;SDS011;4275;42.854;23.222;2022-08-11T06:24:50;15.40;;;14.90;;
8476;SDS011;4275;42.854;23.222;2022-08-11T06:27:19;14.88;;;14.38;;
8476;SDS011;4275;42.854;23.222;2022-08-11T06:29:48;14.80;;;14.30;;
8476;SDS011;4275;42.854;23.222;2022-08-11T06:32:15;15.00;;;14.50;;
8476;SDS011;4275;42.854;23.222;2022-08-11T06:34:51;15.43;;;14.82;;
8476;SDS011;4275;42.854;23.222;2022-08-11T06:37:22;15.18;;;14.60;;
8476;SDS011;4275;42.854;23.222;2022-08-11T06:39:51;15.45;;;14.85;;
8476;SDS011;4275;42.854;23.222;2022-08-11T06:42:27;15.55;;;14.95;;
8476;SDS011;4275;42.854;23.222;2022-08-11T06:45:00;16.58;;;15.88;;
8476;SDS011;4275;42.854;23.222;2022-08-11T06:47:29;14.90;;;14.30;;
8476;SDS011;4275;42.854;23.222;2022-08-11T06:49:58;16.15;;;15.45;;
8476;SDS011;4275;42.854;23.222;2022-08-11T06:52:42;57.55;;;52.33;;
8476;SDS011;4275;42.854;23.222;2022-08-11T06:55:12;16.33;;;15.63;;
8476;SDS011;4275;42.854;23.222;2022-08-11T06:57:59;16.55;;;15.85;;
8476;SDS011;4275;42.854;23.222;2022-08-11T07:00:43;16.90;;;16.10;;
8476;SDS011;4275;42.854;23.222;2022-08-11T07:03:12;16.70;;;15.90;;
8476;SDS011;4275;42.854;23.222;2022-08-11T07:05:46;17.00;;;16.20;;
8476;SDS011;4275;42.854;23.222;2022-08-11T07:14:29;18.20;;;17.17;;
8476;SDS011;4275;42.854;23.222;2022-08-11T07:23:20;15.55;;;14.85;;
8476;SDS011;4275;42.854;23.222;2022-08-11T07:26:07;15.82;;;15.13;;
8476;SDS011;4275;42.854;23.222;2022-08-11T07:28:53;16.15;;;15.45;;
8476;SDS011;4275;42.854;23.222;2022-08-11T07:31:23;16.17;;;15.48;;
8476;SDS011;4275;42.854;23.222;2022-08-11T07:33:55;16.20;;;15.50;;
8476;SDS011;4275;42.854;23.222;2022-08-11T07:36:24;16.52;;;15.73;;
8476;SDS011;4275;42.854;23.222;2022-08-11T07:38:55;16.63;;;15.82;;
8476;SDS011;4275;42.854;23.222;2022-08-11T07:41:23;16.90;;;16.10;;
8476;SDS011;4275;42.854;23.222;2022-08-11T07:43:54;16.45;;;15.65;;
8476;SDS011;4275;42.854;23.222;2022-08-11T07:46:21;16.65;;;15.85;;
8476;SDS011;4275;42.854;23.222;2022-08-11T07:49:06;16.92;;;16.02;;
8476;SDS011;4275;42.854;23.222;2022-08-11T07:51:51;16.88;;;15.98;;
8476;SDS011;4275;42.854;23.222;2022-08-11T07:54:37;17.38;;;16.48;;
8476;SDS011;4275;42.854;23.222;2022-08-11T07:57:06;17.83;;;16.83;;
8476;SDS011;4275;42.854;23.222;2022-08-11T07:59:51;17.75;;;16.75;;
8476;SDS011;4275;42.854;23.222;2022-08-11T08:02:35;18.48;;;17.38;;
8476;SDS011;4275;42.854;23.222;2022-08-11T08:05:20;17.10;;;16.20;;
8476;SDS011;4275;42.854;23.222;2022-08-11T08:08:05;16.27;;;15.48;;
8476;SDS011;4275;42.854;23.222;2022-08-11T08:10:52;17.02;;;16.13;;
8476;SDS011;4275;42.854;23.222;2022-08-11T08:13:37;17.13;;;16.13;;
8476;SDS011;4275;42.854;23.222;2022-08-11T08:16:21;16.15;;;15.35;;
8476;SDS011;4275;42.854;23.222;2022-08-11T08:19:06;16.48;;;15.57;;
8476;SDS011;4275;42.854;23.222;2022-08-11T08:21:33;16.73;;;15.82;;
8476;SDS011;4275;42.854;23.222;2022-08-11T08:24:00;16.65;;;15.75;;
8476;SDS011;4275;42.854;23.222;2022-08-11T08:26:30;17.20;;;16.20;;
8476;SDS011;4275;42.854;23.222;2022-08-11T08:29:16;17.42;;;16.42;;
8476;SDS011;4275;42.854;23.222;2022-08-11T08:32:01;17.65;;;16.65;;
8476;SDS011;4275;42.854;23.222;2022-08-11T08:34:28;17.05;;;16.15;;
8476;SDS011;4275;42.854;23.222;2022-08-11T08:36:56;17.50;;;16.50;;
8476;SDS011;4275;42.854;23.222;2022-08-11T08:39:23;17.50;;;16.50;;
8476;SDS011;4275;42.854;23.222;2022-08-11T08:41:52;17.80;;;16.80;;
8476;SDS011;4275;42.854;23.222;2022-08-11T08:44:20;18.05;;;17.05;;
8476;SDS011;4275;42.854;23.222;2022-08-11T08:46:49;18.13;;;17.13;;
8476;SDS011;4275;42.854;23.222;2022-08-11T08:49:18;18.05;;;17.05;;
8476;SDS011;4275;42.854;23.222;2022-08-11T08:51:46;17.70;;;16.70;;
8476;SDS011;4275;42.854;23.222;2022-08-11T08:54:15;18.25;;;17.25;;
8476;SDS011;4275;42.854;23.222;2022-08-11T08:56:43;17.88;;;16.98;;
8476;SDS011;4275;42.854;23.222;2022-08-11T08:59:13;17.55;;;16.65;;
8476;SDS011;4275;42.854;23.222;2022-08-11T09:01:41;18.05;;;17.05;;
8476;SDS011;4275;42.854;23.222;2022-08-11T09:04:10;17.95;;;17.05;;
8476;SDS011;4275;42.854;23.222;2022-08-11T09:06:37;17.90;;;16.90;;
8476;SDS011;4275;42.854;23.222;2022-08-11T09:09:07;17.73;;;16.73;;
8476;SDS011;4275;42.854;23.222;2022-08-11T09:11:36;17.77;;;16.77;;
8476;SDS011;4275;42.854;23.222;2022-08-11T09:14:19;17.52;;;16.52;;
8476;SDS011;4275;42.854;23.222;2022-08-11T09:16:47;17.75;;;16.75;;
8476;SDS011;4275;42.854;23.222;2022-08-11T09:19:15;17.70;;;16.70;;
8476;SDS011;4275;42.854;23.222;2022-08-11T09:21:42;17.45;;;16.45;;
8476;SDS011;4275;42.854;23.222;2022-08-11T09:24:30;17.90;;;16.90;;
8476;SDS011;4275;42.854;23.222;2022-08-11T09:27:14;18.35;;;17.25;;
8476;SDS011;4275;42.854;23.222;2022-08-11T09:29:42;18.05;;;16.95;;
8476;SDS011;4275;42.854;23.222;2022-08-11T09:32:10;17.95;;;16.95;;
8476;SDS011;4275;42.854;23.222;2022-08-11T09:34:39;18.10;;;17.10;;
8476;SDS011;4275;42.854;23.222;2022-08-11T09:37:06;17.55;;;16.55;;
8476;SDS011;4275;42.854;23.222;2022-08-11T09:39:51;17.65;;;16.65;;
8476;SDS011;4275;42.854;23.222;2022-08-11T09:42:36;18.25;;;17.23;;
8476;SDS011;4275;42.854;23.222;2022-08-11T09:45:22;18.80;;;17.60;;
8476;SDS011;4275;42.854;23.222;2022-08-11T09:47:49;18.45;;;17.35;;
8476;SDS011;4275;42.854;23.222;2022-08-11T09:50:16;18.13;;;17.02;;
8476;SDS011;4275;42.854;23.222;2022-08-11T09:52:43;20.92;;;19.35;;
8476;SDS011;4275;42.854;23.222;2022-08-11T09:55:13;18.08;;;17.02;;
8476;SDS011;4275;42.854;23.222;2022-08-11T09:57:43;18.10;;;17.05;;
8476;SDS011;4275;42.854;23.222;2022-08-11T10:00:30;18.50;;;17.40;;
8476;SDS011;4275;42.854;23.222;2022-08-11T10:02:57;18.75;;;17.65;;
8476;SDS011;4275;42.854;23.222;2022-08-11T10:05:26;19.00;;;17.80;;
8476;SDS011;4275;42.854;23.222;2022-08-11T10:08:12;19.13;;;17.92;;
8476;SDS011;4275;42.854;23.222;2022-08-11T10:10:40;19.23;;;18.02;;
8476;SDS011;4275;42.854;23.222;2022-08-11T10:13:08;19.33;;;18.13;;
8476;SDS011;4275;42.854;23.222;2022-08-11T10:15:37;19.23;;;18.02;;
8476;SDS011;4275;42.854;23.222;2022-08-11T10:18:07;18.90;;;17.80;;
8476;SDS011;4275;42.854;23.222;2022-08-11T10:20:54;19.20;;;18.00;;
8476;SDS011;4275;42.854;23.222;2022-08-11T10:23:22;19.00;;;17.80;;
8476;SDS011;4275;42.854;23.222;2022-08-11T10:26:07;19.27;;;18.08;;
8476;SDS011;4275;42.854;23.222;2022-08-11T10:28:52;19.27;;;18.08;;
8476;SDS011;4275;42.854;23.222;2022-08-11T10:31:20;19.25;;;18.05;;
8476;SDS011;4275;42.854;23.222;2022-08-11T10:34:05;19.58;;;18.38;;
8476;SDS011;4275;42.854;23.222;2022-08-11T10:36:33;19.80;;;18.52;;
8476;SDS011;4275;42.854;23.222;2022-08-11T10:39:06;19.15;;;17.95;;
8476;SDS011;4275;42.854;23.222;2022-08-11T10:41:33;19.33;;;18.13;;
8476;SDS011;4275;42.854;23.222;2022-08-11T10:44:18;19.73;;;18.45;;
8476;SDS011;4275;42.854;23.222;2022-08-11T10:46:47;19.50;;;18.30;;
8476;SDS011;4275;42.854;23.222;2022-08-11T10:49:32;19.65;;;18.42;;
8476;SDS011;4275;42.854;23.222;2022-08-11T10:51:59;19.73;;;18.42;;
8476;SDS011;4275;42.854;23.222;2022-08-11T10:54:43;20.40;;;19.10;;
8476;SDS011;4275;42.854;23.222;2022-08-11T10:57:28;19.20;;;18.00;;
8476;SDS011;4275;42.854;23.222;2022-08-11T11:00:13;19.33;;;18.13;;
8476;SDS011;4275;42.854;23.222;2022-08-11T11:02:42;19.90;;;18.70;;
8476;SDS011;4275;42.854;23.222;2022-08-11T11:05:11;20.05;;;18.75;;
8476;SDS011;4275;42.854;23.222;2022-08-11T11:07:43;20.77;;;19.48;;
8476;SDS011;4275;42.854;23.222;2022-08-11T11:10:13;20.25;;;18.95;;
8476;SDS011;4275;42.854;23.222;2022-08-11T11:12:41;19.85;;;18.55;;
8476;SDS011;4275;42.854;23.222;2022-08-11T11:15:28;19.95;;;18.65;;
8476;SDS011;4275;42.854;23.222;2022-08-11T11:18:15;19.85;;;18.55;;
8476;SDS011;4275;42.854;23.222;2022-08-11T11:20:44;20.35;;;19.05;;
8476;SDS011;4275;42.854;23.222;2022-08-11T11:23:13;19.90;;;18.60;;
8476;SDS011;4275;42.854;23.222;2022-08-11T11:25:45;20.10;;;18.80;;
8476;SDS011;4275;42.854;23.222;2022-08-11T11:28:37;19.73;;;18.42;;
8476;SDS011;4275;42.854;23.222;2022-08-11T11:31:12;18.88;;;17.63;;
8476;SDS011;4275;42.854;23.222;2022-08-11T11:33:54;19.30;;;18.00;;
8476;SDS011;4275;42.854;23.222;2022-08-11T11:36:25;19.58;;;18.27;;
8476;SDS011;4275;42.854;23.222;2022-08-11T11:38:54;19.92;;;18.63;;
8476;SDS011;4275;42.854;23.222;2022-08-11T11:41:23;20.40;;;19.10;;
8476;SDS011;4275;42.854;23.222;2022-08-11T11:43:51;20.25;;;18.95;;
8476;SDS011;4275;42.854;23.222;2022-08-11T11:46:18;19.63;;;18.33;;
8476;SDS011;4275;42.854;23.222;2022-08-11T11:48:45;20.17;;;18.88;;
8476;SDS011;4275;42.854;23.222;2022-08-11T11:51:14;20.35;;;19.05;;
8476;SDS011;4275;42.854;23.222;2022-08-11T11:53:41;19.80;;;18.50;;
8476;SDS011;4275;42.854;23.222;2022-08-11T11:56:09;19.90;;;18.60;;
8476;SDS011;4275;42.854;23.222;2022-08-11T11:58:37;19.40;;;18.20;;
8476;SDS011;4275;42.854;23.222;2022-08-11T12:01:22;19.73;;;18.52;;
8476;SDS011;4275;42.854;23.222;2022-08-11T12:03:51;19.73;;;18.52;;
8476;SDS011;4275;42.854;23.222;2022-08-11T12:06:20;19.38;;;18.17;;
8476;SDS011;4275;42.854;23.222;2022-08-11T12:08:47;20.00;;;18.70;;
8476;SDS011;4275;42.854;23.222;2022-08-11T12:11:15;19.50;;;18.30;;
8476;SDS011;4275;42.854;23.222;2022-08-11T12:14:02;20.02;;;18.73;;
8476;SDS011;4275;42.854;23.222;2022-08-11T12:16:29;20.27;;;18.98;;
8476;SDS011;4275;42.854;23.222;2022-08-11T12:18:57;19.90;;;18.60;;
8476;SDS011;4275;42.854;23.222;2022-08-11T12:21:26;19.73;;;18.42;;
8476;SDS011;4275;42.854;23.222;2022-08-11T12:23:53;19.98;;;18.67;;
8476;SDS011;4275;42.854;23.222;2022-08-11T12:26:38;20.05;;;18.75;;
8476;SDS011;4275;42.854;23.222;2022-08-11T12:29:19;19.95;;;18.65;;
8476;SDS011;4275;42.854;23.222;2022-08-11T12:31:48;19.65;;;18.35;;
8476;SDS011;4275;42.854;23.222;2022-08-11T12:34:16;19.63;;;18.33;;
8476;SDS011;4275;42.854;23.222;2022-08-11T12:36:47;19.70;;;18.48;;
8476;SDS011;4275;42.854;23.222;2022-08-11T12:39:20;19.65;;;18.45;;
8476;SDS011;4275;42.854;23.222;2022-08-11T12:42:09;19.88;;;18.58;;
8476;SDS011;4275;42.854;23.222;2022-08-11T12:44:54;19.52;;;18.23;;
8476;SDS011;4275;42.854;23.222;2022-08-11T12:47:41;19.65;;;18.35;;
8476;SDS011;4275;42.854;23.222;2022-08-11T12:50:23;19.83;;;18.52;;
8476;SDS011;4275;42.854;23.222;2022-08-11T12:53:08;19.95;;;18.65;;
8476;SDS011;4275;42.854;23.222;2022-08-11T12:55:37;20.00;;;18.70;;
8476;SDS011;4275;42.854;23.222;2022-08-11T12:58:23;20.10;;;18.75;;
8476;SDS011;4275;42.854;23.222;2022-08-11T13:00:51;19.67;;;18.33;;
8476;SDS011;4275;42.854;23.222;2022-08-11T13:03:36;19.25;;;17.95;;
8476;SDS011;4275;42.854;23.222;2022-08-11T13:06:22;19.70;;;18.30;;
8476;SDS011;4275;42.854;23.222;2022-08-11T13:08:51;19.80;;;18.40;;
8476;SDS011;4275;42.854;23.222;2022-08-11T13:11:18;19.88;;;18.48;;
8476;SDS011;4275;42.854;23.222;2022-08-11T13:14:03;20.17;;;18.77;;
8476;SDS011;4275;42.854;23.222;2022-08-11T13:16:31;19.67;;;18.38;;
8476;SDS011;4275;42.854;23.222;2022-08-11T13:19:18;19.88;;;18.48;;
8476;SDS011;4275;42.854;23.222;2022-08-11T13:21:46;20.33;;;18.92;;
8476;SDS011;4275;42.854;23.222;2022-08-11T13:24:15;20.42;;;19.02;;
8476;SDS011;4275;42.854;23.222;2022-08-11T13:26:42;21.10;;;19.70;;
8476;SDS011;4275;42.854;23.222;2022-08-11T13:29:10;20.33;;;18.92;;
8476;SDS011;4275;42.854;23.222;2022-08-11T13:31:37;19.77;;;18.38;;
8476;SDS011;4275;42.854;23.222;2022-08-11T13:34:07;20.33;;;18.95;;
8476;SDS011;4275;42.854;23.222;2022-08-11T13:36:34;20.40;;;19.00;;
8476;SDS011;4275;42.854;23.222;2022-08-11T13:39:01;21.60;;;20.10;;
8476;SDS011;4275;42.854;23.222;2022-08-11T13:41:30;20.83;;;19.42;;
8476;SDS011;4275;42.854;23.222;2022-08-11T13:44:03;20.08;;;18.67;;
8476;SDS011;4275;42.854;23.222;2022-08-11T13:46:30;20.42;;;19.02;;
8476;SDS011;4275;42.854;23.222;2022-08-11T13:48:58;19.92;;;18.58;;
8476;SDS011;4275;42.854;23.222;2022-08-11T13:51:25;20.15;;;18.75;;
8476;SDS011;4275;42.854;23.222;2022-08-11T13:54:03;20.15;;;18.75;;
8476;SDS011;4275;42.854;23.222;2022-08-11T13:56:32;20.48;;;18.98;;
8476;SDS011;4275;42.854;23.222;2022-08-11T13:59:00;20.50;;;19.08;;
8476;SDS011;4275;42.854;23.222;2022-08-11T14:01:29;19.98;;;18.58;;
8476;SDS011;4275;42.854;23.222;2022-08-11T14:03:58;22.75;;;21.25;;
8476;SDS011;4275;42.854;23.222;2022-08-11T14:06:28;21.65;;;20.15;;
8476;SDS011;4275;42.854;23.222;2022-08-11T14:08:55;22.77;;;21.17;;
8476;SDS011;4275;42.854;23.222;2022-08-11T14:11:24;21.13;;;19.60;;
8476;SDS011;4275;42.854;23.222;2022-08-11T14:14:10;20.70;;;19.20;;
8476;SDS011;4275;42.854;23.222;2022-08-11T14:16:39;20.95;;;19.45;;
8476;SDS011;4275;42.854;23.222;2022-08-11T14:19:08;20.67;;;19.17;;
8476;SDS011;4275;42.854;23.222;2022-08-11T14:21:37;20.48;;;18.98;;
8476;SDS011;4275;42.854;23.222;2022-08-11T14:24:22;20.00;;;18.60;;
8476;SDS011;4275;42.854;23.222;2022-08-11T14:26:49;20.30;;;18.90;;
8476;SDS011;4275;42.854;23.222;2022-08-11T14:29:19;20.75;;;19.35;;
8476;SDS011;4275;42.854;23.222;2022-08-11T14:31:46;20.58;;;19.08;;
8476;SDS011;4275;42.854;23.222;2022-08-11T14:34:14;20.48;;;19.05;;
8476;SDS011;4275;42.854;23.222;2022-08-11T14:36:46;20.65;;;19.15;;
8476;SDS011;4275;42.854;23.222;2022-08-11T14:39:14;20.65;;;19.15;;
8476;SDS011;4275;42.854;23.222;2022-08-11T14:41:43;20.75;;;19.25;;
8476;SDS011;4275;42.854;23.222;2022-08-11T14:44:29;20.73;;;19.23;;
8476;SDS011;4275;42.854;23.222;2022-08-11T14:47:14;20.40;;;18.90;;
8476;SDS011;4275;42.854;23.222;2022-08-11T14:49:41;20.23;;;18.83;;
8476;SDS011;4275;42.854;23.222;2022-08-11T14:52:08;20.42;;;18.92;;
8476;SDS011;4275;42.854;23.222;2022-08-11T14:54:36;20.73;;;19.23;;
8476;SDS011;4275;42.854;23.222;2022-08-11T14:57:20;20.98;;;19.48;;
8476;SDS011;4275;42.854;23.222;2022-08-11T14:59:49;21.30;;;19.90;;
8476;SDS011;4275;42.854;23.222;2022-08-11T15:02:17;21.20;;;19.73;;
8476;SDS011;4275;42.854;23.222;2022-08-11T15:05:01;20.38;;;18.98;;
8476;SDS011;4275;42.854;23.222;2022-08-11T15:07:29;20.88;;;19.48;;
8476;SDS011;4275;42.854;23.222;2022-08-11T15:09:57;20.42;;;19.02;;
8476;SDS011;4275;42.854;23.222;2022-08-11T15:12:24;20.35;;;18.95;;
8476;SDS011;4275;42.854;23.222;2022-08-11T15:14:53;19.98;;;18.60;;
8476;SDS011;4275;42.854;23.222;2022-08-11T15:17:37;20.02;;;18.70;;
8476;SDS011;4275;42.854;23.222;2022-08-11T15:20:06;20.08;;;18.67;;
8476;SDS011;4275;42.854;23.222;2022-08-11T15:22:51;20.10;;;18.80;;
8476;SDS011;4275;42.854;23.222;2022-08-11T15:25:35;21.15;;;19.75;;
8476;SDS011;4275;42.854;23.222;2022-08-11T15:28:03;19.95;;;18.55;;
8476;SDS011;4275;42.854;23.222;2022-08-11T15:30:50;19.65;;;18.35;;
8476;SDS011;4275;42.854;23.222;2022-08-11T15:33:35;19.65;;;18.35;;
8476;SDS011;4275;42.854;23.222;2022-08-11T15:36:21;20.27;;;18.88;;
8476;SDS011;4275;42.854;23.222;2022-08-11T15:39:08;19.90;;;18.50;;
8476;SDS011;4275;42.854;23.222;2022-08-11T15:41:38;19.85;;;18.45;;
8476;SDS011;4275;42.854;23.222;2022-08-11T15:44:25;19.95;;;18.55;;
8476;SDS011;4275;42.854;23.222;2022-08-11T15:47:21;19.75;;;18.35;;
8476;SDS011;4275;42.854;23.222;2022-08-11T15:49:52;19.70;;;18.33;;
8476;SDS011;4275;42.854;23.222;2022-08-11T15:52:20;19.85;;;18.45;;
8476;SDS011;4275;42.854;23.222;2022-08-11T15:54:48;19.88;;;18.48;;
8476;SDS011;4275;42.854;23.222;2022-08-11T15:57:16;20.15;;;18.75;;
8476;SDS011;4275;42.854;23.222;2022-08-11T15:59:58;20.30;;;18.90;;
8476;SDS011;4275;42.854;23.222;2022-08-11T16:02:43;20.50;;;19.00;;
8476;SDS011;4275;42.854;23.222;2022-08-11T16:05:28;20.80;;;19.30;;
8476;SDS011;4275;42.854;23.222;2022-08-11T16:07:56;20.27;;;18.80;;
8476;SDS011;4275;42.854;23.222;2022-08-11T16:10:23;20.23;;;18.73;;
8476;SDS011;4275;42.854;23.222;2022-08-11T16:12:52;20.85;;;19.35;;
8476;SDS011;4275;42.854;23.222;2022-08-11T16:15:48;20.15;;;18.75;;
8476;SDS011;4275;42.854;23.222;2022-08-11T16:18:35;20.45;;;18.95;;
8476;SDS011;4275;42.854;23.222;2022-08-11T16:21:09;22.70;;;21.10;;
8476;SDS011;4275;42.854;23.222;2022-08-11T16:23:36;20.50;;;19.00;;
8476;SDS011;4275;42.854;23.222;2022-08-11T16:26:05;20.33;;;18.83;;
8476;SDS011;4275;42.854;23.222;2022-08-11T16:28:32;20.83;;;19.33;;
8476;SDS011;4275;42.854;23.222;2022-08-11T16:30:59;20.65;;;19.15;;